KAUN

Auburn Municipal Airport

Auburn, California, USA
METAR KAUN 172115Z AUTO 28004KT 7SM CLR 12/02 A3002 RMK AO1
Observed Flight Rules
Dec-17 @ 21:15 UTC (19 minutes ago) Visual Flight Rules
Wind Visibility Clouds
280° at 4 knots 7 miles
  • Clear skies
Temperatures Readings
Current 12°C / 54°F
Dewpoint 2°C / 36°F
Humidity 51%
Altimeter 30.02" Hg
Pressure 1017 hPa
Elevation 467
METAR KAUN 172115Z AUTO 28004KT 7SM CLR 12/02 A3002 RMK AO1
Observed Flight Rules
Dec-17 @ 21:15 UTC
(19 minutes ago)
VFR
Wind Visibility
280° at 4 knots 7 miles
Clouds
  • Clear skies
Temperature Dewpoint
12°C / 54°F 2°C / 36°F
Humidity Altimeter Pressure
51% 30.02" Hg 1017 hPa